Time;durP1;ratioP1;P1;durP2;ratioP2;P2;SDS_P1;SDS_P2;PMS_P1;PMS_P2;Temp;Humidity;BMP_temperature;BMP_pressure;BME280_temperature;BME280_humidity;BME280_pressure;Samples;Min_cycle;Max_cycle;Signal;HPM_P1;HPM_P2
2022/10/25 00:04:09;;;;;;;;;;;;;;;20.41;51.24;95908.31;10534594;28;1100;-48
2022/10/25 00:09:09;;;;;;;;;;;;;;;20.40;51.38;95915.44;10534337;28;1710;-51
2022/10/25 00:14:14;;;;;;;;;;;;;;;20.37;51.46;95913.31;10531582;28;1902;-48
2022/10/25 00:19:14;;;;;;;;;;;;;;;20.36;51.49;95909.09;10534778;28;1117;-52
2022/10/25 00:24:15;;;;;;;;;;;;;;;20.38;51.53;95919.38;10529270;28;1619;-49
2022/10/25 00:29:15;;;;;;;;;;;;;;;20.31;51.67;95909.13;10532748;28;1504;-52
2022/10/25 00:34:15;;;;;;;;;;;;;;;20.36;51.34;95909.09;10534062;28;1893;-49
2022/10/25 00:39:16;;;;;;;;;;;;;;;20.28;51.38;95913.06;10532987;28;1684;-47
2022/10/25 00:44:34;;;;;;;;;;;;;;;20.36;51.47;95911.72;10533818;28;1245;-47
2022/10/25 00:49:34;;;;;;;;;;;;;;;20.30;51.23;95901.50;10528232;28;1089;-49
2022/10/25 00:54:36;;;;;;;;;;;;;;;20.30;51.30;95904.91;10535935;28;1909;-51
2022/10/25 00:59:36;;;;;;;;;;;;;;;20.25;51.75;95910.19;10539619;28;1551;-50
2022/10/25 01:04:36;;;;;;;;;;;;;;;20.19;51.61;95906.81;10540745;28;947;-51
2022/10/25 01:09:36;;;;;;;;;;;;;;;20.21;51.58;95901.25;10532509;28;1709;-52
2022/10/25 01:14:37;;;;;;;;;;;;;;;20.23;51.40;95883.34;10539095;28;1965;-52
2022/10/25 01:19:47;;;;;;;;;;;;;;;20.15;52.03;95889.91;10546856;28;1160;-49
2022/10/25 01:25:05;;;;;;;;;;;;;;;20.19;51.62;95884.91;10536109;28;1611;-50
2022/10/25 01:30:10;;;;;;;;;;;;;;;20.12;51.61;95876.50;10534324;28;1373;-50
2022/10/25 01:35:16;;;;;;;;;;;;;;;20.14;51.64;95877.03;10540141;28;1972;-51
2022/10/25 01:40:43;;;;;;;;;;;;;;;20.07;51.94;95873.91;10544431;28;1124;-53
2022/10/25 01:45:49;;;;;;;;;;;;;;;20.09;51.76;95875.19;10551989;28;1713;-48
2022/10/25 01:50:49;;;;;;;;;;;;;;;20.07;51.64;95873.91;10547841;28;1068;-51
2022/10/25 01:55:50;;;;;;;;;;;;;;;20.07;51.84;95876.53;10536869;28;1905;-50
2022/10/25 02:00:58;;;;;;;;;;;;;;;20.10;51.64;95875.97;10530763;28;1721;-49
2022/10/25 02:05:58;;;;;;;;;;;;;;;20.07;51.66;95882.56;10535504;28;1639;-47
2022/10/25 02:11:10;;;;;;;;;;;;;;;20.03;51.86;95883.38;10546675;28;1088;-48
2022/10/25 02:16:12;;;;;;;;;;;;;;;19.99;51.68;95883.09;10546085;28;1905;-50
2022/10/25 02:21:22;;;;;;;;;;;;;;;20.03;51.86;95881.53;10505545;28;932;-46
2022/10/25 02:26:23;;;;;;;;;;;;;;;19.97;51.83;95882.59;10515302;28;1678;-53
2022/10/25 02:31:23;;;;;;;;;;;;;;;20.00;51.82;95897.06;10530421;28;1117;-50
2022/10/25 02:36:23;;;;;;;;;;;;;;;19.97;51.71;95901.00;10532586;28;1906;-50
2022/10/25 02:41:23;;;;;;;;;;;;;;;19.96;52.08;95896.00;10537373;28;1175;-51
2022/10/25 02:46:24;;;;;;;;;;;;;;;19.98;51.64;95904.44;10536819;28;1641;-49
2022/10/25 02:51:24;;;;;;;;;;;;;;;19.92;51.92;95906.28;10538348;28;1089;-48
2022/10/25 02:56:24;;;;;;;;;;;;;;;19.90;52.15;95902.34;10535558;28;1980;-47
2022/10/25 03:01:25;;;;;;;;;;;;;;;19.90;51.91;95891.81;10532865;28;1026;-50
2022/10/25 03:06:25;;;;;;;;;;;;;;;19.91;51.98;95904.69;10537045;28;1537;-50
2022/10/25 03:11:25;;;;;;;;;;;;;;;19.88;52.03;95899.97;10534919;28;1128;-50
2022/10/25 03:16:25;;;;;;;;;;;;;;;19.88;52.18;95899.19;10534520;28;1958;-48
2022/10/25 03:21:35;;;;;;;;;;;;;;;19.88;52.09;95907.06;10534969;28;1742;-50
2022/10/25 03:26:36;;;;;;;;;;;;;;;19.87;52.06;95908.13;10532618;28;1532;-46
2022/10/25 03:31:36;;;;;;;;;;;;;;;19.93;51.73;95907.84;10529030;28;1113;-51
2022/10/25 03:36:36;;;;;;;;;;;;;;;19.93;51.94;95907.84;10526859;28;1910;-51
2022/10/25 03:41:37;;;;;;;;;;;;;;;19.93;52.29;95918.38;10535285;28;1184;-52
2022/10/25 03:46:37;;;;;;;;;;;;;;;19.94;52.26;95919.16;10534258;28;1721;-49
2022/10/25 03:51:38;;;;;;;;;;;;;;;19.94;52.46;95924.44;10535335;28;977;-49
2022/10/25 03:56:38;;;;;;;;;;;;;;;19.97;52.10;95923.91;10530760;28;1979;-50
2022/10/25 04:01:38;;;;;;;;;;;;;;;19.97;51.67;95923.91;10529508;28;1125;-47
2022/10/25 04:06:38;;;;;;;;;;;;;;;20.01;51.73;95924.97;10527039;28;1623;-50
2022/10/25 04:11:39;;;;;;;;;;;;;;;20.06;51.41;95927.56;10535327;28;1104;-50
2022/10/25 04:16:39;;;;;;;;;;;;;;;20.08;51.61;95933.34;10528196;28;1909;-49
2022/10/25 04:21:39;;;;;;;;;;;;;;;20.12;52.06;95939.66;10541166;28;1564;-49
2022/10/25 04:26:40;;;;;;;;;;;;;;;20.14;51.90;95929.66;10532864;28;1512;-46
2022/10/25 04:31:40;;;;;;;;;;;;;;;20.17;51.89;95931.78;10540750;28;1137;-49
2022/10/25 04:36:41;;;;;;;;;;;;;;;20.18;51.83;95915.72;10534491;28;1914;-51
2022/10/25 04:41:41;;;;;;;;;;;;;;;20.21;51.69;95923.13;10540708;28;1919;-52
2022/10/25 04:46:42;;;;;;;;;;;;;;;20.23;51.60;95928.91;10539507;28;2507;-49
2022/10/25 04:51:42;;;;;;;;;;;;;;;20.24;51.76;95925.19;10541410;28;1631;-47
2022/10/25 04:56:42;;;;;;;;;;;;;;;20.26;51.40;95933.63;10534307;28;1975;-49
2022/10/25 05:01:43;;;;;;;;;;;;;;;20.27;51.21;95927.31;10538381;28;1156;-53
2022/10/25 05:06:43;;;;;;;;;;;;;;;20.28;51.41;95933.34;10542589;28;1659;-51
2022/10/25 05:11:43;;;;;;;;;;;;;;;20.30;50.88;95939.13;10544586;28;1084;-47
2022/10/25 05:16:44;;;;;;;;;;;;;;;20.30;50.98;95939.13;10535243;28;1981;-48
2022/10/25 05:21:44;;;;;;;;;;;;;;;20.31;50.87;95934.66;10542292;28;956;-49
2022/10/25 05:26:44;;;;;;;;;;;;;;;20.35;51.46;95939.13;10530304;28;1591;-51
2022/10/25 05:31:44;;;;;;;;;;;;;;;20.37;51.14;95944.91;10568825;27;1202;-46
2022/10/25 05:36:45;;;;;;;;;;;;;;;20.37;51.38;95944.91;10538372;28;1922;-53
2022/10/25 05:41:45;;;;;;;;;;;;;;;20.38;51.12;95946.47;10522217;28;2036;-50
2022/10/25 05:46:45;;;;;;;;;;;;;;;20.41;51.34;95953.84;10515718;28;1948;-50
2022/10/25 05:51:45;;;;;;;;;;;;;;;20.45;51.75;95962.78;10538235;28;1805;-48
2022/10/25 05:56:46;;;;;;;;;;;;;;;20.46;51.48;95956.50;10534326;28;1921;-47
2022/10/25 06:01:46;;;;;;;;;;;;;;;20.44;51.37;95969.13;10535777;28;1168;-51
2022/10/25 06:06:46;;;;;;;;;;;;;;;20.44;51.56;95969.13;10540966;28;1623;-47
2022/10/25 06:11:47;;;;;;;;;;;;;;;20.42;51.31;95965.97;10539737;28;1116;-51
2022/10/25 06:16:47;;;;;;;;;;;;;;;20.43;51.53;95975.44;10523079;28;1965;-50
2022/10/25 06:21:47;;;;;;;;;;;;;;;20.42;51.36;95988.88;10538847;28;1129;-47
2022/10/25 06:26:47;;;;;;;;;;;;;;;20.42;51.66;95997.56;10527476;28;1564;-50
2022/10/25 06:31:48;;;;;;;;;;;;;;;20.41;51.59;96003.88;10534685;28;1168;-50
2022/10/25 06:36:48;;;;;;;;;;;;;;;20.41;51.82;96006.50;10536093;28;1913;-48
2022/10/25 06:41:48;;;;;;;;;;;;;;;20.41;51.75;96009.16;10537996;28;1221;-52
2022/10/25 06:46:49;;;;;;;;;;;;;;;20.42;51.69;96016.00;10535460;28;1500;-53
2022/10/25 06:51:49;;;;;;;;;;;;;;;20.43;51.59;96012.31;10536431;28;1229;-51
2022/10/25 06:56:49;;;;;;;;;;;;;;;20.42;51.61;96016.00;10531502;28;1917;-50
2022/10/25 07:01:50;;;;;;;;;;;;;;;20.42;51.54;96009.94;10533397;28;1125;-52
2022/10/25 07:06:50;;;;;;;;;;;;;;;20.45;51.14;96010.19;10532188;28;1528;-49
2022/10/25 07:11:50;;;;;;;;;;;;;;;20.47;51.35;96015.97;10533699;28;1164;-49
2022/10/25 07:16:50;;;;;;;;;;;;;;;20.48;50.88;96024.69;10534783;28;1914;-49
2022/10/25 07:21:51;;;;;;;;;;;;;;;20.52;50.54;96039.69;10537657;28;1144;-48
2022/10/25 07:26:51;;;;;;;;;;;;;;;20.46;51.05;96043.38;10533799;28;1508;-50
2022/10/25 07:31:51;;;;;;;;;;;;;;;20.45;50.86;96048.91;10536955;28;1124;-49
2022/10/25 07:36:51;;;;;;;;;;;;;;;20.49;50.73;96050.75;10534171;28;1910;-49
2022/10/25 07:41:53;;;;;;;;;;;;;;;20.46;50.84;96053.13;10535275;28;1158;-54
2022/10/25 07:46:54;;;;;;;;;;;;;;;20.48;50.88;96045.75;10533881;28;1695;-47
2022/10/25 07:51:54;;;;;;;;;;;;;;;20.50;50.74;96054.16;10531421;28;1607;-50
2022/10/25 07:56:54;;;;;;;;;;;;;;;20.42;50.94;96050.25;10531227;28;1996;-49
2022/10/25 08:01:55;;;;;;;;;;;;;;;20.35;51.12;96056.81;10532418;28;1891;-49
2022/10/25 08:06:57;;;;;;;;;;;;;;;20.33;51.25;96051.00;10535516;28;1647;-48
2022/10/25 08:11:57;;;;;;;;;;;;;;;20.35;50.91;96046.28;10538083;28;1152;-51
2022/10/25 08:16:57;;;;;;;;;;;;;;;20.36;50.91;96050.50;10533934;28;1910;-50
2022/10/25 08:21:57;;;;;;;;;;;;;;;20.33;51.40;96041.28;10539770;28;777;-49
2022/10/25 08:26:58;;;;;;;;;;;;;;;20.35;51.37;96052.34;10522603;28;1569;-49
2022/10/25 08:31:58;;;;;;;;;;;;;;;20.41;50.90;96039.94;10523204;28;1105;-49
2022/10/25 08:36:58;;;;;;;;;;;;;;;20.39;50.95;96048.13;10529475;28;1976;-50
2022/10/25 08:41:59;;;;;;;;;;;;;;;20.52;50.48;96055.50;10534524;28;1136;-50
2022/10/25 08:47:12;;;;;;;;;;;;;;;20.46;50.72;96053.13;10533151;28;1631;-52
2022/10/25 08:52:14;;;;;;;;;;;;;;;20.51;50.59;96056.53;10534258;28;1168;-50
2022/10/25 08:57:15;;;;;;;;;;;;;;;20.51;50.63;96046.00;10524958;28;1905;-51
2022/10/25 09:02:30;;;;;;;;;;;;;;;20.53;50.35;96053.63;10534460;28;1156;-47
2022/10/25 09:07:44;;;;;;;;;;;;;;;20.48;50.77;96057.06;10526494;28;1611;-48
2022/10/25 09:12:48;;;;;;;;;;;;;;;20.48;50.57;96051.81;10532693;28;1116;-48
2022/10/25 09:17:52;;;;;;;;;;;;;;;20.49;50.61;96049.94;10537839;28;1918;-48
2022/10/25 09:22:59;;;;;;;;;;;;;;;20.51;50.45;96053.09;10534596;28;1764;-49
2022/10/25 09:28:02;;;;;;;;;;;;;;;20.47;50.78;96046.78;10538689;28;1524;-46
2022/10/25 09:33:03;;;;;;;;;;;;;;;20.51;50.52;96043.38;10539226;28;1104;-49
2022/10/25 09:38:11;;;;;;;;;;;;;;;20.51;50.55;96046.00;10533461;28;1969;-50
2022/10/25 09:43:16;;;;;;;;;;;;;;;20.49;50.67;96047.31;10539519;28;1148;-46
2022/10/25 09:48:22;;;;;;;;;;;;;;;20.51;50.68;96050.47;10534844;28;1650;-51
2022/10/25 09:53:22;;;;;;;;;;;;;;;20.55;50.63;96054.16;10538186;28;1555;-52
2022/10/25 09:58:22;;;;;;;;;;;;;;;20.55;50.38;96056.78;10530895;28;1907;-48
2022/10/25 10:03:22;;;;;;;;;;;;;;;20.48;50.90;96062.34;10539221;28;1259;-51
2022/10/25 10:08:23;;;;;;;;;;;;;;;20.50;50.68;96065.50;10537844;28;1679;-51
2022/10/25 10:13:43;;;;;;;;;;;;;;;20.52;50.49;96052.84;10538578;28;963;-50
2022/10/25 10:18:43;;;;;;;;;;;;;;;20.47;50.67;96050.22;10536968;28;1905;-50
2022/10/25 10:23:51;;;;;;;;;;;;;;;20.45;50.79;96048.91;10541710;28;875;-51
2022/10/25 10:29:12;;;;;;;;;;;;;;;20.49;50.61;96050.75;10525004;28;1627;-51
2022/10/25 10:34:21;;;;;;;;;;;;;;;20.48;50.78;96048.38;10538617;28;1909;-52
2022/10/25 10:39:22;;;;;;;;;;;;;;;20.44;50.84;96034.97;10537294;28;1746;-51
2022/10/25 10:44:22;;;;;;;;;;;;;;;20.39;51.06;96042.06;10537008;28;944;-48
2022/10/25 10:49:25;;;;;;;;;;;;;;;20.35;50.98;96036.53;10531558;28;1627;-50
2022/10/25 10:54:26;;;;;;;;;;;;;;;20.36;51.05;96035.47;10534607;28;1913;-52
2022/10/25 10:59:31;;;;;;;;;;;;;;;20.38;51.12;96028.09;10536179;28;1507;-49
2022/10/25 11:04:37;;;;;;;;;;;;;;;20.35;51.28;96020.75;10497752;28;1595;-51
2022/10/25 11:09:37;;;;;;;;;;;;;;;20.33;51.44;96019.41;10537181;28;1175;-51
2022/10/25 11:14:38;;;;;;;;;;;;;;;20.39;51.12;96023.63;10540803;28;1980;-51
2022/10/25 11:19:48;;;;;;;;;;;;;;;20.38;51.48;96022.81;10543285;28;1202;-52
2022/10/25 11:25:03;;;;;;;;;;;;;;;20.37;51.32;96018.63;10538581;28;1639;-51
2022/10/25 11:30:11;;;;;;;;;;;;;;;20.38;51.31;96009.66;10528407;28;1492;-50
2022/10/25 11:35:23;;;;;;;;;;;;;;;20.33;51.69;95996.53;10533175;28;1897;-51
2022/10/25 11:40:29;;;;;;;;;;;;;;;20.36;51.42;95995.97;10527417;28;1085;-50
2022/10/25 11:45:37;;;;;;;;;;;;;;;20.33;51.74;95993.09;10534220;28;1721;-53
2022/10/25 11:50:49;;;;;;;;;;;;;;;20.33;51.61;95986.00;10535908;28;1245;-49
2022/10/25 11:56:12;;;;;;;;;;;;;;;20.32;51.57;95989.66;10533445;28;1914;-49
2022/10/25 12:01:22;;;;;;;;;;;;;;;20.33;51.58;95980.72;10514362;28;1509;-51
2022/10/25 12:06:26;;;;;;;;;;;;;;;20.34;51.69;95989.41;10532499;28;1711;-50
2022/10/25 12:11:30;;;;;;;;;;;;;;;20.33;51.50;95988.63;10534769;28;1127;-51
2022/10/25 12:16:30;;;;;;;;;;;;;;;20.36;51.59;95990.72;10533661;28;1950;-52
2022/10/25 12:21:34;;;;;;;;;;;;;;;20.33;51.55;95980.72;10534845;28;853;-52
2022/10/25 12:26:35;;;;;;;;;;;;;;;20.33;51.60;95975.47;10530031;28;1679;-50
2022/10/25 12:31:37;;;;;;;;;;;;;;;20.36;51.66;95979.41;10528834;28;1164;-52
2022/10/25 12:36:38;;;;;;;;;;;;;;;20.39;51.83;95969.13;10527484;28;1909;-52
2022/10/25 12:41:39;;;;;;;;;;;;;;;20.48;51.65;95972.00;10533635;28;1103;-48
2022/10/25 12:46:43;;;;;;;;;;;;;;;20.57;51.52;95968.56;10531300;28;1647;-52
2022/10/25 12:51:49;;;;;;;;;;;;;;;20.72;51.18;95965.09;10523776;28;1493;-50
2022/10/25 12:56:55;;;;;;;;;;;;;;;20.93;50.40;95970.03;10537365;28;1906;-49
2022/10/25 13:01:56;;;;;;;;;;;;;;;20.85;50.68;95959.25;10543508;28;1030;-51
2022/10/25 13:06:56;;;;;;;;;;;;;;;20.67;51.21;95957.97;10541395;28;1698;-52
2022/10/25 13:11:58;;;;;;;;;;;;;;;20.61;51.14;95966.19;10540631;28;1131;-47
2022/10/25 13:17:16;;;;;;;;;;;;;;;20.63;51.29;95959.56;10539765;28;1913;-49
2022/10/25 13:22:33;;;;;;;;;;;;;;;20.66;51.44;95959.06;10538855;28;1663;-51
2022/10/25 13:27:33;;;;;;;;;;;;;;;20.76;51.41;95951.13;10526366;28;1469;-52
2022/10/25 13:32:33;;;;;;;;;;;;;;;20.83;50.99;95953.47;10542000;28;1121;-51
2022/10/25 13:37:34;;;;;;;;;;;;;;;20.75;51.14;95946.13;10533690;28;1913;-49
2022/10/25 13:42:34;;;;;;;;;;;;;;;20.77;51.04;95947.41;10540523;28;1081;-51
2022/10/25 13:47:38;;;;;;;;;;;;;;;20.75;51.31;95946.88;10533573;28;1600;-48
2022/10/25 13:52:42;;;;;;;;;;;;;;;20.72;51.39;95944.00;10537590;28;1524;-48
2022/10/25 13:57:46;;;;;;;;;;;;;;;20.67;51.46;95934.28;10531739;28;1917;-47
2022/10/25 14:03:20;;;;;;;;;;;;;;;20.62;51.44;95936.94;10542394;28;1153;-48
2022/10/25 14:08:30;;;;;;;;;;;;;;;20.57;51.73;95941.41;10541621;28;1743;-51
2022/10/25 14:13:35;;;;;;;;;;;;;;;20.54;51.78;95937.50;10540571;28;979;-48
2022/10/25 14:18:35;;;;;;;;;;;;;;;20.50;51.67;95933.03;10539190;28;1906;-48
2022/10/25 14:23:35;;;;;;;;;;;;;;;20.49;51.99;95932.25;10540252;28;1659;-51
2022/10/25 14:28:37;;;;;;;;;;;;;;;20.44;51.90;95931.47;10525690;28;1503;-46
2022/10/25 14:33:38;;;;;;;;;;;;;;;20.42;51.92;95931.75;10538442;28;1249;-48
2022/10/25 14:39:11;;;;;;;;;;;;;;;20.42;51.57;95926.47;10535960;28;1967;-47
2022/10/25 14:44:40;;;;;;;;;;;;;;;20.40;51.75;95927.81;10505468;28;1848;-48
2022/10/25 14:49:40;;;;;;;;;;;;;;;20.37;52.13;95923.06;10526967;28;1299;-49
2022/10/25 14:54:43;;;;;;;;;;;;;;;20.36;51.88;95927.53;10534510;28;1955;-46
2022/10/25 14:59:45;;;;;;;;;;;;;;;20.38;52.16;95930.69;10535715;28;1643;-51
2022/10/25 15:04:46;;;;;;;;;;;;;;;20.33;52.11;95916.75;10535851;28;948;-49
2022/10/25 15:09:47;;;;;;;;;;;;;;;20.33;51.82;95914.91;10527517;28;1671;-50
2022/10/25 15:14:47;;;;;;;;;;;;;;;20.35;51.74;95914.63;10532727;28;1964;-52
2022/10/25 15:19:57;;;;;;;;;;;;;;;20.32;52.12;95926.47;10535508;28;1112;-52
2022/10/25 15:24:57;;;;;;;;;;;;;;;20.34;51.95;95918.34;10533484;28;1631;-45
2022/10/25 15:29:57;;;;;;;;;;;;;;;20.31;52.04;95919.66;10529561;28;1473;-48
2022/10/25 15:34:58;;;;;;;;;;;;;;;20.35;51.96;95919.91;10534656;28;1964;-48
2022/10/25 15:39:59;;;;;;;;;;;;;;;20.31;51.90;95917.03;10537332;28;1176;-48
2022/10/25 15:45:00;;;;;;;;;;;;;;;20.31;51.78;95921.50;10539764;28;1572;-50
2022/10/25 15:50:00;;;;;;;;;;;;;;;20.31;51.68;95909.13;10535215;28;1286;-48
2022/10/25 15:55:01;;;;;;;;;;;;;;;20.28;51.92;95918.34;10529204;28;1910;-48
2022/10/25 16:00:01;;;;;;;;;;;;;;;20.28;51.98;95922.81;10527747;28;1480;-51
2022/10/25 16:05:02;;;;;;;;;;;;;;;20.26;51.72;95911.75;10535969;28;860;-48
2022/10/25 16:10:02;;;;;;;;;;;;;;;20.31;51.64;95921.50;10535104;28;1619;-46
2022/10/25 16:15:02;;;;;;;;;;;;;;;20.27;51.77;95923.88;10530745;28;1918;-49
2022/10/25 16:20:34;;;;;;;;;;;;;;;20.27;51.85;95931.78;10535727;28;1093;-50
2022/10/25 16:25:34;;;;;;;;;;;;;;;20.31;51.56;95924.13;10524573;28;1623;-52
2022/10/25 16:30:35;;;;;;;;;;;;;;;20.28;51.76;95920.19;10535762;28;1390;-49
2022/10/25 16:35:35;;;;;;;;;;;;;;;20.31;51.69;95927.56;10543548;28;1918;-51
2022/10/25 16:40:35;;;;;;;;;;;;;;;20.25;51.60;95926.78;10537496;28;1113;-48
2022/10/25 16:45:36;;;;;;;;;;;;;;;20.32;51.40;95931.75;10533717;28;1757;-48
2022/10/25 16:50:36;;;;;;;;;;;;;;;20.30;51.48;95936.50;10543170;28;1121;-48
2022/10/25 16:55:36;;;;;;;;;;;;;;;20.33;51.61;95941.25;10536350;28;1953;-50
2022/10/25 17:00:36;;;;;;;;;;;;;;;20.28;51.54;95944.66;10535655;28;1690;-48
2022/10/25 17:05:38;;;;;;;;;;;;;;;20.29;51.43;95948.09;10544753;28;1780;-50
2022/10/25 17:10:39;;;;;;;;;;;;;;;20.32;51.44;95952.03;10545094;28;1112;-48
2022/10/25 17:15:39;;;;;;;;;;;;;;;20.28;51.51;95949.13;10538449;28;1897;-48
2022/10/25 17:20:39;;;;;;;;;;;;;;;20.27;51.37;95955.47;10544383;28;936;-50
2022/10/25 17:25:39;;;;;;;;;;;;;;;20.27;51.56;95958.09;10536088;28;1604;-50
2022/10/25 17:30:41;;;;;;;;;;;;;;;20.25;51.38;95953.13;10534168;28;1433;-48
2022/10/25 17:35:41;;;;;;;;;;;;;;;20.22;51.66;95955.47;10538536;28;1910;-51
2022/10/25 17:40:42;;;;;;;;;;;;;;;20.22;51.37;95952.84;10532150;28;1603;-50
2022/10/25 17:45:43;;;;;;;;;;;;;;;20.21;51.52;95946.81;10539434;28;1639;-50
2022/10/25 17:50:44;;;;;;;;;;;;;;;20.17;51.61;95952.81;10540850;28;1143;-48
2022/10/25 17:55:45;;;;;;;;;;;;;;;20.19;51.62;95950.72;10531004;28;1905;-49
2022/10/25 18:00:48;;;;;;;;;;;;;;;20.16;51.54;95943.34;10537570;28;1638;-46
2022/10/25 18:05:48;;;;;;;;;;;;;;;20.19;51.38;95945.44;10537897;28;1670;-51
2022/10/25 18:10:49;;;;;;;;;;;;;;;20.21;51.61;95940.75;10537903;28;1155;-49
2022/10/25 18:15:49;;;;;;;;;;;;;;;20.16;51.67;95948.59;10533031;28;1979;-46
2022/10/25 18:20:49;;;;;;;;;;;;;;;20.20;51.31;95941.78;10542678;28;1096;-49
2022/10/25 18:25:50;;;;;;;;;;;;;;;20.17;51.54;95932.53;10537436;28;1666;-48
2022/10/25 18:30:57;;;;;;;;;;;;;;;20.17;51.47;95934.41;10535766;28;1631;-50
2022/10/25 18:36:00;;;;;;;;;;;;;;;20.15;51.49;95932.00;10529592;28;1918;-48
2022/10/25 18:41:05;;;;;;;;;;;;;;;20.15;51.48;95928.63;10536507;28;1093;-48
2022/10/25 18:46:05;;;;;;;;;;;;;;;20.17;51.51;95923.88;10531392;28;1631;-48
2022/10/25 18:51:06;;;;;;;;;;;;;;;20.14;51.64;95919.94;10536386;28;1218;-47
2022/10/25 18:56:07;;;;;;;;;;;;;;;20.15;51.63;95916.22;10536138;28;1972;-50
2022/10/25 19:01:11;;;;;;;;;;;;;;;20.13;51.65;95912.31;10530063;28;1680;-52
2022/10/25 19:06:11;;;;;;;;;;;;;;;20.14;51.53;95914.66;10530452;28;1655;-48
2022/10/25 19:11:12;;;;;;;;;;;;;;;20.12;51.52;95906.25;10536603;28;1117;-50
2022/10/25 19:16:12;;;;;;;;;;;;;;;20.13;51.59;95913.06;10533937;28;1914;-51
2022/10/25 19:21:13;;;;;;;;;;;;;;;20.15;51.42;95899.66;10536484;28;1642;-52
2022/10/25 19:26:17;;;;;;;;;;;;;;;20.13;51.54;95892.03;10538995;28;1058;-50
2022/10/25 19:31:17;;;;;;;;;;;;;;;20.15;51.48;95891.78;10529513;28;1683;-51
2022/10/25 19:36:18;;;;;;;;;;;;;;;20.15;51.74;95887.28;10535015;28;1918;-49
2022/10/25 19:41:19;;;;;;;;;;;;;;;20.07;51.75;95882.56;10535028;28;1128;-50
2022/10/25 19:46:19;;;;;;;;;;;;;;;20.14;51.58;95882.28;10535087;28;1663;-52
2022/10/25 19:51:19;;;;;;;;;;;;;;;20.10;51.86;95881.25;10534749;28;1406;-48
2022/10/25 19:56:22;;;;;;;;;;;;;;;20.17;51.28;95871.25;10527499;28;1971;-48
2022/10/25 20:01:26;;;;;;;;;;;;;;;20.10;52.07;95866.25;10518773;28;1026;-49
2022/10/25 20:06:27;;;;;;;;;;;;;;;20.08;52.58;95863.09;10536285;28;1560;-52
2022/10/25 20:11:28;;;;;;;;;;;;;;;20.06;53.21;95869.69;10541536;28;971;-48
2022/10/25 20:16:28;;;;;;;;;;;;;;;20.13;53.03;95867.56;10542774;28;1913;-49
2022/10/25 20:21:32;;;;;;;;;;;;;;;20.10;53.00;95875.97;10537666;28;1689;-49
2022/10/25 20:26:33;;;;;;;;;;;;;;;20.13;53.32;95872.84;10535864;28;1518;-51
2022/10/25 20:31:33;;;;;;;;;;;;;;;20.14;53.06;95869.13;10528575;28;1126;-50
2022/10/25 20:36:34;;;;;;;;;;;;;;;20.13;53.28;95872.84;10527524;28;1917;-52
2022/10/25 20:41:34;;;;;;;;;;;;;;;20.14;52.95;95869.94;10534802;28;1112;-49
2022/10/25 20:46:35;;;;;;;;;;;;;;;20.13;53.35;95872.84;10532670;28;1729;-49
2022/10/25 20:51:36;;;;;;;;;;;;;;;20.09;53.24;95869.94;10533758;28;1225;-48
2022/10/25 20:56:38;;;;;;;;;;;;;;;20.14;53.10;95877.03;10531732;28;1922;-47
2022/10/25 21:01:38;;;;;;;;;;;;;;;20.10;53.23;95865.47;10528516;28;1105;-46
2022/10/25 21:06:38;;;;;;;;;;;;;;;20.12;53.22;95873.88;10526035;28;1832;-50
2022/10/25 21:11:39;;;;;;;;;;;;;;;20.12;53.18;95861.50;10540803;28;1099;-53
2022/10/25 21:16:39;;;;;;;;;;;;;;;20.12;53.33;95864.13;10538742;28;1917;-52
2022/10/25 21:21:39;;;;;;;;;;;;;;;20.14;53.19;95856.75;10538469;28;1673;-51
2022/10/25 21:26:39;;;;;;;;;;;;;;;20.12;53.29;95850.97;10538438;28;1480;-51
2022/10/25 21:31:40;;;;;;;;;;;;;;;20.09;53.22;95845.47;10567943;27;1823;-52
2022/10/25 21:36:41;;;;;;;;;;;;;;;20.09;53.26;95840.22;10533908;28;1906;-51
2022/10/25 21:41:41;;;;;;;;;;;;;;;20.09;53.32;95842.84;10540428;28;1064;-52
2022/10/25 21:46:41;;;;;;;;;;;;;;;20.10;53.12;95836.50;10531988;28;1642;-51
2022/10/25 21:51:41;;;;;;;;;;;;;;;20.04;53.21;95832.31;10540575;28;1283;-52
2022/10/25 21:56:42;;;;;;;;;;;;;;;20.07;53.34;95835.19;10536051;28;1917;-49
2022/10/25 22:01:42;;;;;;;;;;;;;;;20.06;53.23;95817.03;10534370;28;1164;-49
2022/10/25 22:06:42;;;;;;;;;;;;;;;20.07;53.05;95827.28;10531377;28;1611;-49
2022/10/25 22:11:43;;;;;;;;;;;;;;;20.04;53.28;95817.31;10539189;28;1866;-50
2022/10/25 22:16:43;;;;;;;;;;;;;;;20.06;53.09;95811.78;10538051;28;1909;-51
2022/10/25 22:21:43;;;;;;;;;;;;;;;20.06;52.94;95814.41;10546377;28;1128;-48
2022/10/25 22:26:44;;;;;;;;;;;;;;;20.03;53.10;95828.88;10534146;28;1795;-48
2022/10/25 22:31:44;;;;;;;;;;;;;;;20.04;53.15;95803.38;10534692;28;1125;-50
2022/10/25 22:36:45;;;;;;;;;;;;;;;20.01;53.04;95806.56;10536936;28;1910;-52
2022/10/25 22:41:48;;;;;;;;;;;;;;;20.03;52.87;95813.09;10538260;28;1155;-50
2022/10/25 22:46:49;;;;;;;;;;;;;;;20.05;53.04;95812.84;10528370;28;1682;-49
2022/10/25 22:51:49;;;;;;;;;;;;;;;20.05;52.86;95794.44;10538799;28;1182;-50
2022/10/25 22:56:49;;;;;;;;;;;;;;;20.05;53.01;95789.94;10529711;28;1975;-51
2022/10/25 23:01:51;;;;;;;;;;;;;;;20.06;52.76;95790.72;10533846;28;1109;-51
2022/10/25 23:06:52;;;;;;;;;;;;;;;20.06;52.89;95796.00;10535301;28;1623;-52
2022/10/25 23:11:57;;;;;;;;;;;;;;;20.01;52.96;95788.91;10537551;28;1084;-53
2022/10/25 23:16:57;;;;;;;;;;;;;;;20.01;52.78;95783.63;10544522;28;1914;-51
2022/10/25 23:21:57;;;;;;;;;;;;;;;19.98;52.85;95792.09;10547158;28;1729;-49
2022/10/25 23:26:58;;;;;;;;;;;;;;;19.99;53.03;95806.81;10528602;28;1492;-52
2022/10/25 23:31:58;;;;;;;;;;;;;;;20.02;52.78;95802.84;10532965;28;1109;-54
2022/10/25 23:36:58;;;;;;;;;;;;;;;20.03;52.95;95807.06;10533265;28;1972;-51
2022/10/25 23:41:59;;;;;;;;;;;;;;;20.02;52.85;95813.38;10535615;28;1096;-51
2022/10/25 23:46:59;;;;;;;;;;;;;;;20.05;52.69;95802.34;10527752;28;1710;-49
2022/10/25 23:51:59;;;;;;;;;;;;;;;19.96;52.91;95785.50;10534317;28;1445;-49
2022/10/25 23:56:59;;;;;;;;;;;;;;;19.96;52.86;95803.94;10527592;28;1961;-50
